sensor_id;sensor_type;location;lat;lon;timestamp;P1;durP1;ratioP1;P2;durP2;ratioP2
944;SDS011;459;48.676;9.034;2024-02-26T00:00:52;1.70;;;1.60;;
944;SDS011;459;48.676;9.034;2024-02-26T00:03:17;2.70;;;2.50;;
944;SDS011;459;48.676;9.034;2024-02-26T00:05:42;2.30;;;2.10;;
944;SDS011;459;48.676;9.034;2024-02-26T00:08:07;1.53;;;1.43;;
944;SDS011;459;48.676;9.034;2024-02-26T00:10:32;2.07;;;1.60;;
944;SDS011;459;48.676;9.034;2024-02-26T00:12:58;2.13;;;2.00;;
944;SDS011;459;48.676;9.034;2024-02-26T00:15:23;2.87;;;1.87;;
944;SDS011;459;48.676;9.034;2024-02-26T00:17:49;2.03;;;1.63;;
944;SDS011;459;48.676;9.034;2024-02-26T00:20:14;1.85;;;1.30;;
944;SDS011;459;48.676;9.034;2024-02-26T00:22:39;1.87;;;1.77;;
944;SDS011;459;48.676;9.034;2024-02-26T00:25:04;3.33;;;1.87;;
944;SDS011;459;48.676;9.034;2024-02-26T00:27:30;2.27;;;1.70;;
944;SDS011;459;48.676;9.034;2024-02-26T00:29:55;2.07;;;1.67;;
944;SDS011;459;48.676;9.034;2024-02-26T00:32:20;2.43;;;2.23;;
944;SDS011;459;48.676;9.034;2024-02-26T00:34:45;3.13;;;2.35;;
944;SDS011;459;48.676;9.034;2024-02-26T00:37:10;1.70;;;1.60;;
944;SDS011;459;48.676;9.034;2024-02-26T00:39:35;1.95;;;1.50;;
944;SDS011;459;48.676;9.034;2024-02-26T00:42:01;1.88;;;1.60;;
944;SDS011;459;48.676;9.034;2024-02-26T00:44:26;3.07;;;1.47;;
944;SDS011;459;48.676;9.034;2024-02-26T00:46:51;3.90;;;1.93;;
944;SDS011;459;48.676;9.034;2024-02-26T00:49:16;1.80;;;1.70;;
944;SDS011;459;48.676;9.034;2024-02-26T00:51:41;7.07;;;1.90;;
944;SDS011;459;48.676;9.034;2024-02-26T00:54:06;1.60;;;1.50;;
944;SDS011;459;48.676;9.034;2024-02-26T00:56:32;1.97;;;1.67;;
944;SDS011;459;48.676;9.034;2024-02-26T00:58:58;1.63;;;1.30;;
944;SDS011;459;48.676;9.034;2024-02-26T01:01:23;1.33;;;1.20;;
944;SDS011;459;48.676;9.034;2024-02-26T01:03:48;3.57;;;1.37;;
944;SDS011;459;48.676;9.034;2024-02-26T01:06:13;2.10;;;1.90;;
944;SDS011;459;48.676;9.034;2024-02-26T01:08:38;2.10;;;1.43;;
944;SDS011;459;48.676;9.034;2024-02-26T01:11:04;2.40;;;1.60;;
944;SDS011;459;48.676;9.034;2024-02-26T01:13:29;1.50;;;1.40;;
944;SDS011;459;48.676;9.034;2024-02-26T01:15:54;1.57;;;1.30;;
944;SDS011;459;48.676;9.034;2024-02-26T01:18:20;2.30;;;1.13;;
944;SDS011;459;48.676;9.034;2024-02-26T01:20:45;2.37;;;1.50;;
944;SDS011;459;48.676;9.034;2024-02-26T01:23:10;3.03;;;1.37;;
944;SDS011;459;48.676;9.034;2024-02-26T01:25:35;1.63;;;1.53;;
944;SDS011;459;48.676;9.034;2024-02-26T01:28:01;2.83;;;1.50;;
944;SDS011;459;48.676;9.034;2024-02-26T01:30:26;1.43;;;1.27;;
944;SDS011;459;48.676;9.034;2024-02-26T01:32:51;1.70;;;1.60;;
944;SDS011;459;48.676;9.034;2024-02-26T01:35:17;2.50;;;1.53;;
944;SDS011;459;48.676;9.034;2024-02-26T01:37:42;1.43;;;1.33;;
944;SDS011;459;48.676;9.034;2024-02-26T01:40:07;2.30;;;1.43;;
944;SDS011;459;48.676;9.034;2024-02-26T01:42:34;2.40;;;1.50;;
944;SDS011;459;48.676;9.034;2024-02-26T01:44:59;1.43;;;1.27;;
944;SDS011;459;48.676;9.034;2024-02-26T01:47:24;1.37;;;1.27;;
944;SDS011;459;48.676;9.034;2024-02-26T01:49:50;1.83;;;1.40;;
944;SDS011;459;48.676;9.034;2024-02-26T01:52:15;1.13;;;1.03;;
944;SDS011;459;48.676;9.034;2024-02-26T01:54:41;1.27;;;1.17;;
944;SDS011;459;48.676;9.034;2024-02-26T01:57:07;1.30;;;1.20;;
944;SDS011;459;48.676;9.034;2024-02-26T01:59:33;1.33;;;1.20;;
944;SDS011;459;48.676;9.034;2024-02-26T02:01:59;1.47;;;0.93;;
944;SDS011;459;48.676;9.034;2024-02-26T02:04:26;2.33;;;1.30;;
944;SDS011;459;48.676;9.034;2024-02-26T02:06:52;1.30;;;1.20;;
944;SDS011;459;48.676;9.034;2024-02-26T02:09:17;0.70;;;0.63;;
944;SDS011;459;48.676;9.034;2024-02-26T02:11:43;1.17;;;0.90;;
944;SDS011;459;48.676;9.034;2024-02-26T02:14:09;1.10;;;0.60;;
944;SDS011;459;48.676;9.034;2024-02-26T02:16:34;0.80;;;0.60;;
944;SDS011;459;48.676;9.034;2024-02-26T02:18:59;0.73;;;0.70;;
944;SDS011;459;48.676;9.034;2024-02-26T02:21:24;1.13;;;0.77;;
944;SDS011;459;48.676;9.034;2024-02-26T02:23:49;1.00;;;0.90;;
944;SDS011;459;48.676;9.034;2024-02-26T02:26:15;1.33;;;1.03;;
944;SDS011;459;48.676;9.034;2024-02-26T02:28:41;0.90;;;0.80;;
944;SDS011;459;48.676;9.034;2024-02-26T02:31:06;0.93;;;0.93;;
944;SDS011;459;48.676;9.034;2024-02-26T02:33:32;0.60;;;0.47;;
944;SDS011;459;48.676;9.034;2024-02-26T02:35:57;0.93;;;0.90;;
944;SDS011;459;48.676;9.034;2024-02-26T02:38:23;0.87;;;0.60;;
944;SDS011;459;48.676;9.034;2024-02-26T02:40:48;1.20;;;1.10;;
944;SDS011;459;48.676;9.034;2024-02-26T02:43:14;0.67;;;0.63;;
944;SDS011;459;48.676;9.034;2024-02-26T02:45:39;0.83;;;0.70;;
944;SDS011;459;48.676;9.034;2024-02-26T02:48:04;2.20;;;0.90;;
944;SDS011;459;48.676;9.034;2024-02-26T02:50:29;1.03;;;0.77;;
944;SDS011;459;48.676;9.034;2024-02-26T02:52:54;0.90;;;0.90;;
944;SDS011;459;48.676;9.034;2024-02-26T02:55:20;0.77;;;0.70;;
944;SDS011;459;48.676;9.034;2024-02-26T02:57:46;0.87;;;0.70;;
944;SDS011;459;48.676;9.034;2024-02-26T03:00:11;0.70;;;0.70;;
944;SDS011;459;48.676;9.034;2024-02-26T03:02:37;1.10;;;1.00;;
944;SDS011;459;48.676;9.034;2024-02-26T03:05:02;1.40;;;1.10;;
944;SDS011;459;48.676;9.034;2024-02-26T03:07:28;1.10;;;0.93;;
944;SDS011;459;48.676;9.034;2024-02-26T03:09:53;2.30;;;1.03;;
944;SDS011;459;48.676;9.034;2024-02-26T03:12:18;0.63;;;0.53;;
944;SDS011;459;48.676;9.034;2024-02-26T03:14:43;0.90;;;0.90;;
944;SDS011;459;48.676;9.034;2024-02-26T03:17:08;1.20;;;1.10;;
944;SDS011;459;48.676;9.034;2024-02-26T03:19:34;1.00;;;0.90;;
944;SDS011;459;48.676;9.034;2024-02-26T03:21:59;0.80;;;0.60;;
944;SDS011;459;48.676;9.034;2024-02-26T03:24:24;1.50;;;1.40;;
944;SDS011;459;48.676;9.034;2024-02-26T03:26:49;1.10;;;0.97;;
944;SDS011;459;48.676;9.034;2024-02-26T03:29:15;0.90;;;0.80;;
944;SDS011;459;48.676;9.034;2024-02-26T03:31:40;1.23;;;1.13;;
944;SDS011;459;48.676;9.034;2024-02-26T03:34:06;1.00;;;0.80;;
944;SDS011;459;48.676;9.034;2024-02-26T03:36:31;0.93;;;0.80;;
944;SDS011;459;48.676;9.034;2024-02-26T03:38:56;1.00;;;0.90;;
944;SDS011;459;48.676;9.034;2024-02-26T03:41:21;0.90;;;0.80;;
944;SDS011;459;48.676;9.034;2024-02-26T03:43:46;1.37;;;1.10;;
944;SDS011;459;48.676;9.034;2024-02-26T03:46:12;0.97;;;0.90;;
944;SDS011;459;48.676;9.034;2024-02-26T03:48:38;0.80;;;0.80;;
944;SDS011;459;48.676;9.034;2024-02-26T03:51:03;0.93;;;0.83;;
944;SDS011;459;48.676;9.034;2024-02-26T03:53:28;1.00;;;0.80;;
944;SDS011;459;48.676;9.034;2024-02-26T03:55:54;1.17;;;1.07;;
944;SDS011;459;48.676;9.034;2024-02-26T03:58:20;1.60;;;0.87;;
944;SDS011;459;48.676;9.034;2024-02-26T04:00:45;2.33;;;1.87;;
944;SDS011;459;48.676;9.034;2024-02-26T04:03:12;2.90;;;2.57;;
944;SDS011;459;48.676;9.034;2024-02-26T04:05:37;1.47;;;1.33;;
944;SDS011;459;48.676;9.034;2024-02-26T04:08:02;2.00;;;1.60;;
944;SDS011;459;48.676;9.034;2024-02-26T04:10:29;1.17;;;1.07;;
944;SDS011;459;48.676;9.034;2024-02-26T04:12:54;1.10;;;1.00;;
944;SDS011;459;48.676;9.034;2024-02-26T04:15:19;1.10;;;1.00;;
944;SDS011;459;48.676;9.034;2024-02-26T04:17:44;2.30;;;1.17;;
944;SDS011;459;48.676;9.034;2024-02-26T04:20:13;1.23;;;0.80;;
944;SDS011;459;48.676;9.034;2024-02-26T04:22:38;1.00;;;1.00;;
944;SDS011;459;48.676;9.034;2024-02-26T04:25:03;0.95;;;0.77;;
944;SDS011;459;48.676;9.034;2024-02-26T04:27:28;0.87;;;0.87;;
944;SDS011;459;48.676;9.034;2024-02-26T04:29:53;1.93;;;0.80;;
944;SDS011;459;48.676;9.034;2024-02-26T04:32:19;1.00;;;0.80;;
944;SDS011;459;48.676;9.034;2024-02-26T04:34:44;1.03;;;0.97;;
944;SDS011;459;48.676;9.034;2024-02-26T04:37:09;0.90;;;0.80;;
944;SDS011;459;48.676;9.034;2024-02-26T04:39:34;0.90;;;0.80;;
944;SDS011;459;48.676;9.034;2024-02-26T04:41:59;0.80;;;0.80;;
944;SDS011;459;48.676;9.034;2024-02-26T04:44:28;0.60;;;0.60;;
944;SDS011;459;48.676;9.034;2024-02-26T04:46:53;1.38;;;1.08;;
944;SDS011;459;48.676;9.034;2024-02-26T04:49:18;1.63;;;0.80;;
944;SDS011;459;48.676;9.034;2024-02-26T04:51:44;1.65;;;1.00;;
944;SDS011;459;48.676;9.034;2024-02-26T04:54:09;1.20;;;0.80;;
944;SDS011;459;48.676;9.034;2024-02-26T04:56:34;1.23;;;1.13;;
944;SDS011;459;48.676;9.034;2024-02-26T04:58:59;1.23;;;0.93;;
944;SDS011;459;48.676;9.034;2024-02-26T05:01:24;1.00;;;1.00;;
944;SDS011;459;48.676;9.034;2024-02-26T05:03:49;1.00;;;1.00;;
944;SDS011;459;48.676;9.034;2024-02-26T05:06:14;1.00;;;0.90;;
944;SDS011;459;48.676;9.034;2024-02-26T05:08:40;1.40;;;1.30;;
944;SDS011;459;48.676;9.034;2024-02-26T05:11:05;1.70;;;1.60;;
944;SDS011;459;48.676;9.034;2024-02-26T05:13:31;1.60;;;1.30;;
944;SDS011;459;48.676;9.034;2024-02-26T05:15:56;1.93;;;1.20;;
944;SDS011;459;48.676;9.034;2024-02-26T05:18:24;1.80;;;1.70;;
944;SDS011;459;48.676;9.034;2024-02-26T05:20:49;2.90;;;2.70;;
944;SDS011;459;48.676;9.034;2024-02-26T05:23:14;1.45;;;1.23;;
944;SDS011;459;48.676;9.034;2024-02-26T05:25:40;1.73;;;1.47;;
944;SDS011;459;48.676;9.034;2024-02-26T05:28:06;1.43;;;1.10;;
944;SDS011;459;48.676;9.034;2024-02-26T05:30:31;1.40;;;1.10;;
944;SDS011;459;48.676;9.034;2024-02-26T05:32:56;1.87;;;1.10;;
944;SDS011;459;48.676;9.034;2024-02-26T05:35:21;1.93;;;1.40;;
944;SDS011;459;48.676;9.034;2024-02-26T05:37:47;1.50;;;1.40;;
944;SDS011;459;48.676;9.034;2024-02-26T05:40:12;1.73;;;1.63;;
944;SDS011;459;48.676;9.034;2024-02-26T05:42:37;2.40;;;1.30;;
944;SDS011;459;48.676;9.034;2024-02-26T05:45:02;2.27;;;1.70;;
944;SDS011;459;48.676;9.034;2024-02-26T05:47:32;2.17;;;1.97;;
944;SDS011;459;48.676;9.034;2024-02-26T05:49:57;2.60;;;2.40;;
944;SDS011;459;48.676;9.034;2024-02-26T05:52:24;1.63;;;1.30;;
944;SDS011;459;48.676;9.034;2024-02-26T05:54:49;1.47;;;1.37;;
944;SDS011;459;48.676;9.034;2024-02-26T05:57:15;2.40;;;1.87;;
944;SDS011;459;48.676;9.034;2024-02-26T05:59:40;1.60;;;1.50;;
944;SDS011;459;48.676;9.034;2024-02-26T06:02:05;1.47;;;1.37;;
944;SDS011;459;48.676;9.034;2024-02-26T06:04:30;2.73;;;2.53;;
944;SDS011;459;48.676;9.034;2024-02-26T06:06:55;3.00;;;1.80;;
944;SDS011;459;48.676;9.034;2024-02-26T06:09:22;1.37;;;1.27;;
944;SDS011;459;48.676;9.034;2024-02-26T06:11:47;1.77;;;1.67;;
944;SDS011;459;48.676;9.034;2024-02-26T06:14:12;1.20;;;1.10;;
944;SDS011;459;48.676;9.034;2024-02-26T06:16:39;1.40;;;1.30;;
944;SDS011;459;48.676;9.034;2024-02-26T06:19:04;1.83;;;1.17;;
944;SDS011;459;48.676;9.034;2024-02-26T06:21:29;2.47;;;1.70;;
944;SDS011;459;48.676;9.034;2024-02-26T06:23:54;2.30;;;2.00;;
944;SDS011;459;48.676;9.034;2024-02-26T06:26:20;5.83;;;2.13;;
944;SDS011;459;48.676;9.034;2024-02-26T06:28:45;5.53;;;1.60;;
944;SDS011;459;48.676;9.034;2024-02-26T06:31:10;3.27;;;3.07;;
944;SDS011;459;48.676;9.034;2024-02-26T06:33:35;2.43;;;2.27;;
944;SDS011;459;48.676;9.034;2024-02-26T06:36:00;1.83;;;1.73;;
944;SDS011;459;48.676;9.034;2024-02-26T06:38:25;2.03;;;1.93;;
944;SDS011;459;48.676;9.034;2024-02-26T06:40:51;2.30;;;1.83;;
944;SDS011;459;48.676;9.034;2024-02-26T06:43:16;2.00;;;1.70;;
944;SDS011;459;48.676;9.034;2024-02-26T06:45:41;1.97;;;1.50;;
944;SDS011;459;48.676;9.034;2024-02-26T06:48:06;2.63;;;2.43;;
944;SDS011;459;48.676;9.034;2024-02-26T06:50:31;2.70;;;1.90;;
944;SDS011;459;48.676;9.034;2024-02-26T06:52:57;2.17;;;1.97;;
944;SDS011;459;48.676;9.034;2024-02-26T06:55:22;1.50;;;1.40;;
944;SDS011;459;48.676;9.034;2024-02-26T06:57:47;1.57;;;1.47;;
944;SDS011;459;48.676;9.034;2024-02-26T07:00:12;2.93;;;2.70;;
944;SDS011;459;48.676;9.034;2024-02-26T07:02:40;3.20;;;2.80;;
944;SDS011;459;48.676;9.034;2024-02-26T07:05:05;2.63;;;2.40;;
944;SDS011;459;48.676;9.034;2024-02-26T07:07:30;2.73;;;2.27;;
944;SDS011;459;48.676;9.034;2024-02-26T07:09:56;4.45;;;2.75;;
944;SDS011;459;48.676;9.034;2024-02-26T07:12:21;1.70;;;1.60;;
944;SDS011;459;48.676;9.034;2024-02-26T07:14:46;4.50;;;2.47;;
944;SDS011;459;48.676;9.034;2024-02-26T07:17:11;2.50;;;1.97;;
944;SDS011;459;48.676;9.034;2024-02-26T07:19:36;1.50;;;1.40;;
944;SDS011;459;48.676;9.034;2024-02-26T07:22:02;2.63;;;1.30;;
944;SDS011;459;48.676;9.034;2024-02-26T07:24:27;1.80;;;1.55;;
944;SDS011;459;48.676;9.034;2024-02-26T07:26:53;2.63;;;1.87;;
944;SDS011;459;48.676;9.034;2024-02-26T07:29:19;3.60;;;1.57;;
944;SDS011;459;48.676;9.034;2024-02-26T07:31:44;2.00;;;1.80;;
944;SDS011;459;48.676;9.034;2024-02-26T07:34:09;2.00;;;1.73;;
944;SDS011;459;48.676;9.034;2024-02-26T07:36:35;1.30;;;1.20;;
944;SDS011;459;48.676;9.034;2024-02-26T07:39:00;1.40;;;1.30;;
944;SDS011;459;48.676;9.034;2024-02-26T07:41:26;2.30;;;1.80;;
944;SDS011;459;48.676;9.034;2024-02-26T07:43:51;1.33;;;1.23;;
944;SDS011;459;48.676;9.034;2024-02-26T07:46:16;1.83;;;1.00;;
944;SDS011;459;48.676;9.034;2024-02-26T07:48:42;2.43;;;2.00;;
944;SDS011;459;48.676;9.034;2024-02-26T07:51:07;1.80;;;1.70;;
944;SDS011;459;48.676;9.034;2024-02-26T07:53:32;2.27;;;1.67;;
944;SDS011;459;48.676;9.034;2024-02-26T07:55:57;2.60;;;1.70;;
944;SDS011;459;48.676;9.034;2024-02-26T07:58:25;1.37;;;1.27;;
944;SDS011;459;48.676;9.034;2024-02-26T08:00:50;1.70;;;1.60;;
944;SDS011;459;48.676;9.034;2024-02-26T08:03:16;1.77;;;1.67;;
944;SDS011;459;48.676;9.034;2024-02-26T08:05:41;2.07;;;1.50;;
944;SDS011;459;48.676;9.034;2024-02-26T08:08:08;1.50;;;1.40;;
944;SDS011;459;48.676;9.034;2024-02-26T08:10:33;3.03;;;1.70;;
944;SDS011;459;48.676;9.034;2024-02-26T08:12:58;1.80;;;1.70;;
944;SDS011;459;48.676;9.034;2024-02-26T08:15:30;1.73;;;1.60;;
944;SDS011;459;48.676;9.034;2024-02-26T08:17:55;1.60;;;1.40;;
944;SDS011;459;48.676;9.034;2024-02-26T08:20:20;1.53;;;1.43;;
944;SDS011;459;48.676;9.034;2024-02-26T08:22:46;1.67;;;1.57;;
944;SDS011;459;48.676;9.034;2024-02-26T08:25:11;1.40;;;1.20;;
944;SDS011;459;48.676;9.034;2024-02-26T08:27:36;1.27;;;1.17;;
944;SDS011;459;48.676;9.034;2024-02-26T08:30:01;1.33;;;1.20;;
944;SDS011;459;48.676;9.034;2024-02-26T08:32:27;1.10;;;1.00;;
944;SDS011;459;48.676;9.034;2024-02-26T08:34:52;1.80;;;1.20;;
944;SDS011;459;48.676;9.034;2024-02-26T08:37:17;1.50;;;1.40;;
944;SDS011;459;48.676;9.034;2024-02-26T08:39:43;1.30;;;1.20;;
944;SDS011;459;48.676;9.034;2024-02-26T08:42:08;2.50;;;1.13;;
944;SDS011;459;48.676;9.034;2024-02-26T08:44:33;1.50;;;1.40;;
944;SDS011;459;48.676;9.034;2024-02-26T08:46:58;1.23;;;1.13;;
944;SDS011;459;48.676;9.034;2024-02-26T08:49:23;1.63;;;1.20;;
944;SDS011;459;48.676;9.034;2024-02-26T08:51:49;1.90;;;0.90;;
944;SDS011;459;48.676;9.034;2024-02-26T08:54:14;1.27;;;1.17;;
944;SDS011;459;48.676;9.034;2024-02-26T08:56:39;1.10;;;1.00;;
944;SDS011;459;48.676;9.034;2024-02-26T08:59:04;1.77;;;1.60;;
944;SDS011;459;48.676;9.034;2024-02-26T09:01:31;1.37;;;1.27;;
944;SDS011;459;48.676;9.034;2024-02-26T09:03:56;1.83;;;1.60;;
944;SDS011;459;48.676;9.034;2024-02-26T09:06:21;1.10;;;1.00;;
944;SDS011;459;48.676;9.034;2024-02-26T09:08:47;1.30;;;1.10;;
944;SDS011;459;48.676;9.034;2024-02-26T09:11:12;1.40;;;1.17;;
944;SDS011;459;48.676;9.034;2024-02-26T09:13:37;1.70;;;1.37;;
944;SDS011;459;48.676;9.034;2024-02-26T09:16:03;1.40;;;1.10;;
944;SDS011;459;48.676;9.034;2024-02-26T09:18:28;0.80;;;0.73;;
944;SDS011;459;48.676;9.034;2024-02-26T09:20:54;1.85;;;1.10;;
944;SDS011;459;48.676;9.034;2024-02-26T09:23:19;1.40;;;1.30;;
944;SDS011;459;48.676;9.034;2024-02-26T09:25:44;1.10;;;0.80;;
944;SDS011;459;48.676;9.034;2024-02-26T09:28:09;2.50;;;1.70;;
944;SDS011;459;48.676;9.034;2024-02-26T09:30:34;1.43;;;1.33;;
944;SDS011;459;48.676;9.034;2024-02-26T09:32:59;2.03;;;1.50;;
944;SDS011;459;48.676;9.034;2024-02-26T09:35:25;1.50;;;1.40;;
944;SDS011;459;48.676;9.034;2024-02-26T09:37:51;4.70;;;2.93;;
944;SDS011;459;48.676;9.034;2024-02-26T09:40:17;2.80;;;1.83;;
944;SDS011;459;48.676;9.034;2024-02-26T09:42:45;1.47;;;1.37;;
944;SDS011;459;48.676;9.034;2024-02-26T09:45:21;5.47;;;2.67;;
944;SDS011;459;48.676;9.034;2024-02-26T09:47:47;1.80;;;1.40;;
944;SDS011;459;48.676;9.034;2024-02-26T09:50:12;2.10;;;1.77;;
944;SDS011;459;48.676;9.034;2024-02-26T09:52:38;1.73;;;1.40;;
944;SDS011;459;48.676;9.034;2024-02-26T09:55:04;3.33;;;1.23;;
944;SDS011;459;48.676;9.034;2024-02-26T09:57:30;1.00;;;0.90;;
944;SDS011;459;48.676;9.034;2024-02-26T09:59:56;1.10;;;1.10;;
944;SDS011;459;48.676;9.034;2024-02-26T10:02:24;2.03;;;1.00;;
944;SDS011;459;48.676;9.034;2024-02-26T10:04:49;1.37;;;1.03;;
944;SDS011;459;48.676;9.034;2024-02-26T10:07:16;1.80;;;0.90;;
944;SDS011;459;48.676;9.034;2024-02-26T10:09:41;0.80;;;0.80;;
944;SDS011;459;48.676;9.034;2024-02-26T10:12:06;0.95;;;0.80;;
944;SDS011;459;48.676;9.034;2024-02-26T10:14:32;0.80;;;0.80;;
944;SDS011;459;48.676;9.034;2024-02-26T10:16:57;0.73;;;0.70;;
944;SDS011;459;48.676;9.034;2024-02-26T10:19:27;1.10;;;0.90;;
944;SDS011;459;48.676;9.034;2024-02-26T10:21:55;0.77;;;0.60;;
944;SDS011;459;48.676;9.034;2024-02-26T10:24:21;1.00;;;0.90;;
944;SDS011;459;48.676;9.034;2024-02-26T10:26:46;0.87;;;0.80;;
944;SDS011;459;48.676;9.034;2024-02-26T10:29:11;0.60;;;0.53;;
944;SDS011;459;48.676;9.034;2024-02-26T10:31:37;0.80;;;0.70;;
944;SDS011;459;48.676;9.034;2024-02-26T10:34:02;1.80;;;1.03;;
944;SDS011;459;48.676;9.034;2024-02-26T10:36:27;1.10;;;1.00;;
944;SDS011;459;48.676;9.034;2024-02-26T10:38:54;1.80;;;1.10;;
944;SDS011;459;48.676;9.034;2024-02-26T10:41:19;1.13;;;1.03;;
944;SDS011;459;48.676;9.034;2024-02-26T10:43:44;1.93;;;1.07;;
944;SDS011;459;48.676;9.034;2024-02-26T10:46:10;1.73;;;0.90;;
944;SDS011;459;48.676;9.034;2024-02-26T10:48:35;0.80;;;0.80;;
944;SDS011;459;48.676;9.034;2024-02-26T10:51:00;1.00;;;0.90;;
944;SDS011;459;48.676;9.034;2024-02-26T10:53:26;1.77;;;1.20;;
944;SDS011;459;48.676;9.034;2024-02-26T10:56:02;1.13;;;1.00;;
944;SDS011;459;48.676;9.034;2024-02-26T10:58:28;1.60;;;1.40;;
944;SDS011;459;48.676;9.034;2024-02-26T11:00:53;1.53;;;1.43;;
944;SDS011;459;48.676;9.034;2024-02-26T11:03:21;1.60;;;1.40;;
944;SDS011;459;48.676;9.034;2024-02-26T11:05:50;2.83;;;1.63;;
944;SDS011;459;48.676;9.034;2024-02-26T11:08:16;2.20;;;1.77;;
944;SDS011;459;48.676;9.034;2024-02-26T11:10:43;1.90;;;1.70;;
944;SDS011;459;48.676;9.034;2024-02-26T11:13:09;2.73;;;2.10;;
944;SDS011;459;48.676;9.034;2024-02-26T11:15:35;1.70;;;1.60;;
944;SDS011;459;48.676;9.034;2024-02-26T11:18:01;1.40;;;1.30;;
944;SDS011;459;48.676;9.034;2024-02-26T11:20:28;1.43;;;1.30;;
944;SDS011;459;48.676;9.034;2024-02-26T11:22:53;2.27;;;1.40;;
944;SDS011;459;48.676;9.034;2024-02-26T11:25:18;2.07;;;1.87;;
944;SDS011;459;48.676;9.034;2024-02-26T11:27:44;1.90;;;1.20;;
944;SDS011;459;48.676;9.034;2024-02-26T11:30:11;1.47;;;0.97;;
944;SDS011;459;48.676;9.034;2024-02-26T11:32:38;1.77;;;1.30;;
944;SDS011;459;48.676;9.034;2024-02-26T11:35:04;1.80;;;1.10;;
944;SDS011;459;48.676;9.034;2024-02-26T11:37:29;1.40;;;1.20;;
944;SDS011;459;48.676;9.034;2024-02-26T11:39:55;1.90;;;1.57;;
944;SDS011;459;48.676;9.034;2024-02-26T11:42:24;2.30;;;1.20;;
944;SDS011;459;48.676;9.034;2024-02-26T11:44:53;1.10;;;1.00;;
944;SDS011;459;48.676;9.034;2024-02-26T11:47:21;1.40;;;1.27;;
944;SDS011;459;48.676;9.034;2024-02-26T11:49:47;1.60;;;1.00;;
944;SDS011;459;48.676;9.034;2024-02-26T11:52:12;1.67;;;1.50;;
944;SDS011;459;48.676;9.034;2024-02-26T11:54:38;1.90;;;1.37;;
944;SDS011;459;48.676;9.034;2024-02-26T11:57:04;1.30;;;1.20;;
944;SDS011;459;48.676;9.034;2024-02-26T11:59:38;1.27;;;1.13;;
944;SDS011;459;48.676;9.034;2024-02-26T12:02:03;1.00;;;0.90;;
944;SDS011;459;48.676;9.034;2024-02-26T12:04:31;1.83;;;1.50;;
944;SDS011;459;48.676;9.034;2024-02-26T12:06:57;1.60;;;1.40;;
944;SDS011;459;48.676;9.034;2024-02-26T12:11:56;1.23;;;1.13;;
944;SDS011;459;48.676;9.034;2024-02-26T12:14:24;1.03;;;0.90;;
944;SDS011;459;48.676;9.034;2024-02-26T12:16:49;1.40;;;1.17;;
944;SDS011;459;48.676;9.034;2024-02-26T12:19:15;2.30;;;1.03;;
944;SDS011;459;48.676;9.034;2024-02-26T12:21:40;1.83;;;1.03;;
944;SDS011;459;48.676;9.034;2024-02-26T12:24:12;1.30;;;1.13;;
944;SDS011;459;48.676;9.034;2024-02-26T12:26:38;1.00;;;0.90;;
944;SDS011;459;48.676;9.034;2024-02-26T12:29:04;1.10;;;0.80;;
944;SDS011;459;48.676;9.034;2024-02-26T12:31:29;1.20;;;1.10;;
944;SDS011;459;48.676;9.034;2024-02-26T12:33:56;1.60;;;1.20;;
944;SDS011;459;48.676;9.034;2024-02-26T12:36:21;1.30;;;0.70;;
944;SDS011;459;48.676;9.034;2024-02-26T12:38:48;1.20;;;0.97;;
944;SDS011;459;48.676;9.034;2024-02-26T12:41:13;0.73;;;0.50;;
944;SDS011;459;48.676;9.034;2024-02-26T12:43:38;1.30;;;0.60;;
944;SDS011;459;48.676;9.034;2024-02-26T12:46:03;1.63;;;0.80;;
944;SDS011;459;48.676;9.034;2024-02-26T12:48:29;2.10;;;0.90;;
944;SDS011;459;48.676;9.034;2024-02-26T12:50:54;1.50;;;0.77;;
944;SDS011;459;48.676;9.034;2024-02-26T12:53:20;0.83;;;0.73;;
944;SDS011;459;48.676;9.034;2024-02-26T12:55:45;1.50;;;0.70;;
944;SDS011;459;48.676;9.034;2024-02-26T12:58:10;0.80;;;0.60;;
944;SDS011;459;48.676;9.034;2024-02-26T13:00:36;0.60;;;0.50;;
944;SDS011;459;48.676;9.034;2024-02-26T13:03:01;0.60;;;0.30;;
944;SDS011;459;48.676;9.034;2024-02-26T13:05:27;0.60;;;0.40;;
944;SDS011;459;48.676;9.034;2024-02-26T13:07:52;1.03;;;0.60;;
944;SDS011;459;48.676;9.034;2024-02-26T13:10:18;0.63;;;0.50;;
944;SDS011;459;48.676;9.034;2024-02-26T13:12:44;1.07;;;0.60;;
944;SDS011;459;48.676;9.034;2024-02-26T13:15:13;0.83;;;0.63;;
944;SDS011;459;48.676;9.034;2024-02-26T13:17:38;1.00;;;0.60;;
944;SDS011;459;48.676;9.034;2024-02-26T13:20:04;0.90;;;0.70;;
944;SDS011;459;48.676;9.034;2024-02-26T13:22:30;0.70;;;0.63;;
944;SDS011;459;48.676;9.034;2024-02-26T13:24:58;1.13;;;0.70;;
944;SDS011;459;48.676;9.034;2024-02-26T13:27:23;1.00;;;0.70;;
944;SDS011;459;48.676;9.034;2024-02-26T13:29:54;0.50;;;0.30;;
944;SDS011;459;48.676;9.034;2024-02-26T13:32:26;0.70;;;0.37;;
944;SDS011;459;48.676;9.034;2024-02-26T13:35:03;3.60;;;1.67;;
944;SDS011;459;48.676;9.034;2024-02-26T13:37:28;1.63;;;0.90;;
944;SDS011;459;48.676;9.034;2024-02-26T13:39:54;0.85;;;0.63;;
944;SDS011;459;48.676;9.034;2024-02-26T13:42:19;0.70;;;0.43;;
944;SDS011;459;48.676;9.034;2024-02-26T13:44:44;0.70;;;0.40;;
944;SDS011;459;48.676;9.034;2024-02-26T13:47:09;0.60;;;0.40;;
944;SDS011;459;48.676;9.034;2024-02-26T13:49:34;0.70;;;0.50;;
944;SDS011;459;48.676;9.034;2024-02-26T13:51:59;0.60;;;0.33;;
944;SDS011;459;48.676;9.034;2024-02-26T13:54:24;0.60;;;0.50;;
944;SDS011;459;48.676;9.034;2024-02-26T13:56:50;0.60;;;0.43;;
944;SDS011;459;48.676;9.034;2024-02-26T13:59:15;0.80;;;0.40;;
944;SDS011;459;48.676;9.034;2024-02-26T14:01:40;1.43;;;0.77;;
944;SDS011;459;48.676;9.034;2024-02-26T14:04:05;0.80;;;0.40;;
944;SDS011;459;48.676;9.034;2024-02-26T14:06:32;1.37;;;0.60;;
944;SDS011;459;48.676;9.034;2024-02-26T14:08:57;0.80;;;0.60;;
944;SDS011;459;48.676;9.034;2024-02-26T14:11:22;0.60;;;0.47;;
944;SDS011;459;48.676;9.034;2024-02-26T14:13:47;0.90;;;0.57;;
944;SDS011;459;48.676;9.034;2024-02-26T14:16:13;1.00;;;0.47;;
944;SDS011;459;48.676;9.034;2024-02-26T14:18:38;2.30;;;0.57;;
944;SDS011;459;48.676;9.034;2024-02-26T14:21:04;0.60;;;0.30;;
944;SDS011;459;48.676;9.034;2024-02-26T14:23:29;1.00;;;0.50;;
944;SDS011;459;48.676;9.034;2024-02-26T14:25:54;0.82;;;0.52;;
944;SDS011;459;48.676;9.034;2024-02-26T14:28:19;0.70;;;0.60;;
944;SDS011;459;48.676;9.034;2024-02-26T14:30:45;0.60;;;0.30;;
944;SDS011;459;48.676;9.034;2024-02-26T14:33:10;0.80;;;0.50;;
944;SDS011;459;48.676;9.034;2024-02-26T14:35:35;0.87;;;0.60;;
944;SDS011;459;48.676;9.034;2024-02-26T14:38:01;0.60;;;0.40;;
944;SDS011;459;48.676;9.034;2024-02-26T14:40:26;1.00;;;0.60;;
944;SDS011;459;48.676;9.034;2024-02-26T14:42:51;1.00;;;0.60;;
944;SDS011;459;48.676;9.034;2024-02-26T14:45:17;0.83;;;0.57;;
944;SDS011;459;48.676;9.034;2024-02-26T14:47:42;0.80;;;0.50;;
944;SDS011;459;48.676;9.034;2024-02-26T14:50:07;1.00;;;0.60;;
944;SDS011;459;48.676;9.034;2024-02-26T14:52:32;0.90;;;0.70;;
944;SDS011;459;48.676;9.034;2024-02-26T14:54:57;0.90;;;0.50;;
944;SDS011;459;48.676;9.034;2024-02-26T14:57:25;2.60;;;0.70;;
944;SDS011;459;48.676;9.034;2024-02-26T14:59:50;1.07;;;0.67;;
944;SDS011;459;48.676;9.034;2024-02-26T15:02:16;1.23;;;0.50;;
944;SDS011;459;48.676;9.034;2024-02-26T15:04:41;1.50;;;1.37;;
944;SDS011;459;48.676;9.034;2024-02-26T15:07:07;1.10;;;0.70;;
944;SDS011;459;48.676;9.034;2024-02-26T15:09:32;0.93;;;0.77;;
944;SDS011;459;48.676;9.034;2024-02-26T15:11:57;1.63;;;1.30;;
944;SDS011;459;48.676;9.034;2024-02-26T15:14:22;1.10;;;0.80;;
944;SDS011;459;48.676;9.034;2024-02-26T15:16:48;1.17;;;0.97;;
944;SDS011;459;48.676;9.034;2024-02-26T15:19:13;2.03;;;1.47;;
944;SDS011;459;48.676;9.034;2024-02-26T15:21:42;1.80;;;1.17;;
944;SDS011;459;48.676;9.034;2024-02-26T15:24:07;1.13;;;0.80;;
944;SDS011;459;48.676;9.034;2024-02-26T15:26:32;1.90;;;1.63;;
944;SDS011;459;48.676;9.034;2024-02-26T15:28:57;1.30;;;0.90;;
944;SDS011;459;48.676;9.034;2024-02-26T15:31:22;1.23;;;1.10;;
944;SDS011;459;48.676;9.034;2024-02-26T15:33:47;1.73;;;1.17;;
944;SDS011;459;48.676;9.034;2024-02-26T15:36:13;1.23;;;1.07;;